sensor_id;sensor_type;location;lat;lon;timestamp;P1;durP1;ratioP1;P2;durP2;ratioP2
32198;SDS011;19221;42.656;21.156;2022-10-17T00:01:02;21.48;;;15.13;;
32198;SDS011;19221;42.656;21.156;2022-10-17T00:03:28;26.85;;;15.63;;
32198;SDS011;19221;42.656;21.156;2022-10-17T00:05:53;21.25;;;15.23;;
32198;SDS011;19221;42.656;21.156;2022-10-17T00:08:19;31.10;;;15.77;;
32198;SDS011;19221;42.656;21.156;2022-10-17T00:10:53;22.85;;;15.50;;
32198;SDS011;19221;42.656;21.156;2022-10-17T00:13:19;25.45;;;15.18;;
32198;SDS011;19221;42.656;21.156;2022-10-17T00:15:45;25.65;;;15.90;;
32198;SDS011;19221;42.656;21.156;2022-10-17T00:18:11;32.03;;;19.17;;
32198;SDS011;19221;42.656;21.156;2022-10-17T00:20:36;30.30;;;21.80;;
32198;SDS011;19221;42.656;21.156;2022-10-17T00:23:02;32.97;;;21.45;;
32198;SDS011;19221;42.656;21.156;2022-10-17T00:25:28;31.77;;;21.95;;
32198;SDS011;19221;42.656;21.156;2022-10-17T00:27:53;33.22;;;21.25;;
32198;SDS011;19221;42.656;21.156;2022-10-17T00:30:19;31.80;;;22.00;;
32198;SDS011;19221;42.656;21.156;2022-10-17T00:32:45;32.70;;;20.00;;
32198;SDS011;19221;42.656;21.156;2022-10-17T00:35:11;30.80;;;19.88;;
32198;SDS011;19221;42.656;21.156;2022-10-17T00:37:36;27.45;;;19.40;;
32198;SDS011;19221;42.656;21.156;2022-10-17T00:40:03;33.03;;;20.30;;
32198;SDS011;19221;42.656;21.156;2022-10-17T00:42:29;28.02;;;19.52;;
32198;SDS011;19221;42.656;21.156;2022-10-17T00:47:39;26.85;;;19.90;;
32198;SDS011;19221;42.656;21.156;2022-10-17T00:50:05;31.98;;;20.65;;
32198;SDS011;19221;42.656;21.156;2022-10-17T00:52:31;28.38;;;19.00;;
32198;SDS011;19221;42.656;21.156;2022-10-17T00:54:58;28.02;;;18.17;;
32198;SDS011;19221;42.656;21.156;2022-10-17T00:57:25;23.95;;;17.98;;
32198;SDS011;19221;42.656;21.156;2022-10-17T00:59:52;28.70;;;18.23;;
32198;SDS011;19221;42.656;21.156;2022-10-17T01:02:20;31.23;;;19.30;;
32198;SDS011;19221;42.656;21.156;2022-10-17T01:04:46;29.70;;;18.80;;
32198;SDS011;19221;42.656;21.156;2022-10-17T01:07:12;39.03;;;20.42;;
32198;SDS011;19221;42.656;21.156;2022-10-17T01:09:38;27.38;;;20.17;;
32198;SDS011;19221;42.656;21.156;2022-10-17T01:12:24;30.20;;;20.30;;
32198;SDS011;19221;42.656;21.156;2022-10-17T01:33:12;26.63;;;16.00;;
32198;SDS011;19221;42.656;21.156;2022-10-17T01:38:16;21.08;;;14.90;;
32198;SDS011;19221;42.656;21.156;2022-10-17T01:43:23;12.43;;;10.45;;
32198;SDS011;19221;42.656;21.156;2022-10-17T01:48:45;18.05;;;10.88;;
32198;SDS011;19221;42.656;21.156;2022-10-17T01:51:27;17.98;;;10.80;;
32198;SDS011;19221;42.656;21.156;2022-10-17T01:54:01;13.18;;;10.90;;
32198;SDS011;19221;42.656;21.156;2022-10-17T01:56:29;18.77;;;12.43;;
32198;SDS011;19221;42.656;21.156;2022-10-17T01:58:57;16.92;;;12.00;;
32198;SDS011;19221;42.656;21.156;2022-10-17T02:01:25;21.42;;;12.93;;
32198;SDS011;19221;42.656;21.156;2022-10-17T02:03:54;19.95;;;14.13;;
32198;SDS011;19221;42.656;21.156;2022-10-17T02:06:20;21.40;;;14.02;;
32198;SDS011;19221;42.656;21.156;2022-10-17T02:08:47;19.77;;;14.25;;
32198;SDS011;19221;42.656;21.156;2022-10-17T02:11:22;22.15;;;14.38;;
32198;SDS011;19221;42.656;21.156;2022-10-17T02:24:32;17.08;;;11.43;;
32198;SDS011;19221;42.656;21.156;2022-10-17T02:27:07;15.45;;;11.18;;
32198;SDS011;19221;42.656;21.156;2022-10-17T02:29:35;18.25;;;10.90;;
32198;SDS011;19221;42.656;21.156;2022-10-17T02:32:09;15.15;;;10.20;;
32198;SDS011;19221;42.656;21.156;2022-10-17T02:34:38;16.73;;;10.32;;
32198;SDS011;19221;42.656;21.156;2022-10-17T02:37:06;13.75;;;11.90;;
32198;SDS011;19221;42.656;21.156;2022-10-17T02:39:32;17.30;;;11.43;;
32198;SDS011;19221;42.656;21.156;2022-10-17T02:42:01;16.15;;;11.55;;
32198;SDS011;19221;42.656;21.156;2022-10-17T02:44:28;13.50;;;11.05;;
32198;SDS011;19221;42.656;21.156;2022-10-17T02:46:55;19.52;;;11.93;;
32198;SDS011;19221;42.656;21.156;2022-10-17T02:49:25;19.27;;;11.82;;
32198;SDS011;19221;42.656;21.156;2022-10-17T02:52:07;19.25;;;10.80;;
32198;SDS011;19221;42.656;21.156;2022-10-17T02:54:42;18.30;;;11.13;;
32198;SDS011;19221;42.656;21.156;2022-10-17T02:57:21;19.90;;;12.55;;
32198;SDS011;19221;42.656;21.156;2022-10-17T02:59:49;17.70;;;11.68;;
32198;SDS011;19221;42.656;21.156;2022-10-17T03:02:15;18.05;;;12.90;;
32198;SDS011;19221;42.656;21.156;2022-10-17T03:04:42;72.43;;;39.72;;
32198;SDS011;19221;42.656;21.156;2022-10-17T03:07:08;81.40;;;41.60;;
32198;SDS011;19221;42.656;21.156;2022-10-17T03:09:34;60.65;;;32.60;;
32198;SDS011;19221;42.656;21.156;2022-10-17T03:11:59;55.40;;;31.25;;
32198;SDS011;19221;42.656;21.156;2022-10-17T03:14:25;48.42;;;26.17;;
32198;SDS011;19221;42.656;21.156;2022-10-17T03:16:51;47.88;;;25.95;;
32198;SDS011;19221;42.656;21.156;2022-10-17T03:19:17;41.25;;;22.98;;
32198;SDS011;19221;42.656;21.156;2022-10-17T03:21:42;32.50;;;20.77;;
32198;SDS011;19221;42.656;21.156;2022-10-17T03:24:08;29.98;;;17.95;;
32198;SDS011;19221;42.656;21.156;2022-10-17T03:26:34;23.52;;;15.55;;
32198;SDS011;19221;42.656;21.156;2022-10-17T03:28:59;20.17;;;13.27;;
32198;SDS011;19221;42.656;21.156;2022-10-17T03:31:25;20.23;;;12.95;;
32198;SDS011;19221;42.656;21.156;2022-10-17T03:33:51;19.73;;;12.43;;
32198;SDS011;19221;42.656;21.156;2022-10-17T03:36:17;19.77;;;11.57;;
32198;SDS011;19221;42.656;21.156;2022-10-17T03:38:43;16.73;;;12.10;;
32198;SDS011;19221;42.656;21.156;2022-10-17T03:41:09;17.60;;;11.68;;
32198;SDS011;19221;42.656;21.156;2022-10-17T03:43:35;16.10;;;11.25;;
32198;SDS011;19221;42.656;21.156;2022-10-17T03:46:01;20.70;;;15.18;;
32198;SDS011;19221;42.656;21.156;2022-10-17T03:48:27;45.70;;;27.13;;
32198;SDS011;19221;42.656;21.156;2022-10-17T03:51:03;34.05;;;20.50;;
32198;SDS011;19221;42.656;21.156;2022-10-17T03:53:29;20.48;;;12.70;;
32198;SDS011;19221;42.656;21.156;2022-10-17T03:55:55;24.65;;;12.65;;
32198;SDS011;19221;42.656;21.156;2022-10-17T03:58:21;20.67;;;13.40;;
32198;SDS011;19221;42.656;21.156;2022-10-17T04:00:47;22.27;;;14.98;;
32198;SDS011;19221;42.656;21.156;2022-10-17T04:03:13;18.77;;;12.77;;
32198;SDS011;19221;42.656;21.156;2022-10-17T04:05:38;17.40;;;12.93;;
32198;SDS011;19221;42.656;21.156;2022-10-17T04:08:04;19.38;;;13.45;;
32198;SDS011;19221;42.656;21.156;2022-10-17T04:10:30;18.83;;;12.27;;
32198;SDS011;19221;42.656;21.156;2022-10-17T04:12:55;19.52;;;11.25;;
32198;SDS011;19221;42.656;21.156;2022-10-17T04:15:21;17.65;;;12.52;;
32198;SDS011;19221;42.656;21.156;2022-10-17T04:17:47;18.45;;;12.20;;
32198;SDS011;19221;42.656;21.156;2022-10-17T04:20:12;20.42;;;13.32;;
32198;SDS011;19221;42.656;21.156;2022-10-17T04:22:38;19.33;;;13.35;;
32198;SDS011;19221;42.656;21.156;2022-10-17T04:25:04;21.45;;;15.05;;
32198;SDS011;19221;42.656;21.156;2022-10-17T04:27:29;21.17;;;15.13;;
32198;SDS011;19221;42.656;21.156;2022-10-17T04:29:55;23.60;;;14.68;;
32198;SDS011;19221;42.656;21.156;2022-10-17T04:32:21;23.20;;;14.10;;
32198;SDS011;19221;42.656;21.156;2022-10-17T04:34:47;22.63;;;15.05;;
32198;SDS011;19221;42.656;21.156;2022-10-17T04:37:13;26.75;;;15.68;;
32198;SDS011;19221;42.656;21.156;2022-10-17T04:39:39;24.17;;;15.73;;
32198;SDS011;19221;42.656;21.156;2022-10-17T04:42:04;27.40;;;16.33;;
32198;SDS011;19221;42.656;21.156;2022-10-17T04:44:30;24.83;;;15.90;;
32198;SDS011;19221;42.656;21.156;2022-10-17T04:46:57;21.65;;;14.63;;
32198;SDS011;19221;42.656;21.156;2022-10-17T04:49:23;26.08;;;15.52;;
32198;SDS011;19221;42.656;21.156;2022-10-17T04:51:49;25.63;;;15.90;;
32198;SDS011;19221;42.656;21.156;2022-10-17T04:54:14;25.13;;;15.95;;
32198;SDS011;19221;42.656;21.156;2022-10-17T04:56:40;33.53;;;17.70;;
32198;SDS011;19221;42.656;21.156;2022-10-17T04:59:06;25.92;;;17.55;;
32198;SDS011;19221;42.656;21.156;2022-10-17T05:01:32;32.60;;;19.38;;
32198;SDS011;19221;42.656;21.156;2022-10-17T05:03:57;28.73;;;18.30;;
32198;SDS011;19221;42.656;21.156;2022-10-17T05:06:24;23.42;;;15.90;;
32198;SDS011;19221;42.656;21.156;2022-10-17T05:08:50;33.22;;;17.25;;
32198;SDS011;19221;42.656;21.156;2022-10-17T05:11:19;29.13;;;19.17;;
32198;SDS011;19221;42.656;21.156;2022-10-17T05:13:55;36.72;;;21.73;;
32198;SDS011;19221;42.656;21.156;2022-10-17T05:16:21;31.13;;;17.70;;
32198;SDS011;19221;42.656;21.156;2022-10-17T05:18:48;26.35;;;18.17;;
32198;SDS011;19221;42.656;21.156;2022-10-17T05:21:14;27.00;;;17.48;;
32198;SDS011;19221;42.656;21.156;2022-10-17T05:23:41;26.05;;;17.00;;
32198;SDS011;19221;42.656;21.156;2022-10-17T05:26:07;32.97;;;16.55;;
32198;SDS011;19221;42.656;21.156;2022-10-17T05:28:33;33.42;;;19.13;;
32198;SDS011;19221;42.656;21.156;2022-10-17T05:31:02;28.75;;;17.13;;
32198;SDS011;19221;42.656;21.156;2022-10-17T05:33:28;33.17;;;20.33;;
32198;SDS011;19221;42.656;21.156;2022-10-17T05:35:54;30.63;;;16.80;;
32198;SDS011;19221;42.656;21.156;2022-10-17T05:38:19;29.02;;;15.48;;
32198;SDS011;19221;42.656;21.156;2022-10-17T05:40:45;25.02;;;13.68;;
32198;SDS011;19221;42.656;21.156;2022-10-17T05:43:11;20.42;;;14.15;;
32198;SDS011;19221;42.656;21.156;2022-10-17T05:45:36;21.70;;;13.15;;
32198;SDS011;19221;42.656;21.156;2022-10-17T05:48:02;39.45;;;16.35;;
32198;SDS011;19221;42.656;21.156;2022-10-17T05:50:28;23.58;;;12.95;;
32198;SDS011;19221;42.656;21.156;2022-10-17T05:52:54;19.90;;;12.77;;
32198;SDS011;19221;42.656;21.156;2022-10-17T05:55:20;31.05;;;13.32;;
32198;SDS011;19221;42.656;21.156;2022-10-17T05:57:45;25.08;;;13.82;;
32198;SDS011;19221;42.656;21.156;2022-10-17T06:00:14;27.27;;;16.23;;
32198;SDS011;19221;42.656;21.156;2022-10-17T06:02:40;41.65;;;17.63;;
32198;SDS011;19221;42.656;21.156;2022-10-17T06:05:06;29.10;;;18.35;;
32198;SDS011;19221;42.656;21.156;2022-10-17T06:07:32;38.80;;;19.67;;
32198;SDS011;19221;42.656;21.156;2022-10-17T06:09:58;32.08;;;20.58;;
32198;SDS011;19221;42.656;21.156;2022-10-17T06:12:24;27.42;;;16.13;;
32198;SDS011;19221;42.656;21.156;2022-10-17T06:14:49;30.42;;;18.70;;
32198;SDS011;19221;42.656;21.156;2022-10-17T06:17:15;34.85;;;20.77;;
32198;SDS011;19221;42.656;21.156;2022-10-17T06:19:41;43.58;;;20.63;;
32198;SDS011;19221;42.656;21.156;2022-10-17T06:22:06;31.58;;;19.08;;
32198;SDS011;19221;42.656;21.156;2022-10-17T06:24:32;35.80;;;18.83;;
32198;SDS011;19221;42.656;21.156;2022-10-17T06:26:58;31.88;;;18.60;;
32198;SDS011;19221;42.656;21.156;2022-10-17T06:29:23;39.35;;;18.75;;
32198;SDS011;19221;42.656;21.156;2022-10-17T06:31:49;33.65;;;19.50;;
32198;SDS011;19221;42.656;21.156;2022-10-17T06:34:15;30.50;;;18.08;;
32198;SDS011;19221;42.656;21.156;2022-10-17T06:36:41;29.25;;;17.00;;
32198;SDS011;19221;42.656;21.156;2022-10-17T06:39:06;25.15;;;17.13;;
32198;SDS011;19221;42.656;21.156;2022-10-17T06:41:32;28.38;;;16.60;;
32198;SDS011;19221;42.656;21.156;2022-10-17T06:43:58;27.23;;;16.15;;
32198;SDS011;19221;42.656;21.156;2022-10-17T06:46:24;28.35;;;16.88;;
32198;SDS011;19221;42.656;21.156;2022-10-17T06:48:51;27.77;;;16.98;;
32198;SDS011;19221;42.656;21.156;2022-10-17T06:51:17;24.48;;;15.63;;
32198;SDS011;19221;42.656;21.156;2022-10-17T06:53:43;27.20;;;15.93;;
32198;SDS011;19221;42.656;21.156;2022-10-17T06:56:09;29.48;;;17.13;;
32198;SDS011;19221;42.656;21.156;2022-10-17T06:58:35;34.75;;;17.00;;
32198;SDS011;19221;42.656;21.156;2022-10-17T07:01:04;34.00;;;17.05;;
32198;SDS011;19221;42.656;21.156;2022-10-17T07:03:33;40.22;;;20.05;;
32198;SDS011;19221;42.656;21.156;2022-10-17T07:06:02;38.70;;;19.02;;
32198;SDS011;19221;42.656;21.156;2022-10-17T07:08:28;40.65;;;20.02;;
32198;SDS011;19221;42.656;21.156;2022-10-17T07:10:55;34.58;;;18.42;;
32198;SDS011;19221;42.656;21.156;2022-10-17T07:13:21;38.65;;;20.33;;
32198;SDS011;19221;42.656;21.156;2022-10-17T07:15:47;36.75;;;19.38;;
32198;SDS011;19221;42.656;21.156;2022-10-17T07:18:12;53.53;;;21.77;;
32198;SDS011;19221;42.656;21.156;2022-10-17T07:20:38;37.88;;;19.58;;
32198;SDS011;19221;42.656;21.156;2022-10-17T07:23:04;41.10;;;20.80;;
32198;SDS011;19221;42.656;21.156;2022-10-17T07:25:31;35.30;;;19.65;;
32198;SDS011;19221;42.656;21.156;2022-10-17T07:27:56;35.97;;;18.95;;
32198;SDS011;19221;42.656;21.156;2022-10-17T07:30:22;39.58;;;20.38;;
32198;SDS011;19221;42.656;21.156;2022-10-17T07:32:48;40.72;;;20.02;;
32198;SDS011;19221;42.656;21.156;2022-10-17T07:35:16;40.88;;;20.73;;
32198;SDS011;19221;42.656;21.156;2022-10-17T07:37:42;39.60;;;19.02;;
32198;SDS011;19221;42.656;21.156;2022-10-17T07:40:08;34.35;;;18.80;;
32198;SDS011;19221;42.656;21.156;2022-10-17T07:42:37;38.58;;;20.77;;
32198;SDS011;19221;42.656;21.156;2022-10-17T07:45:03;36.67;;;19.73;;
32198;SDS011;19221;42.656;21.156;2022-10-17T07:47:29;39.63;;;19.95;;
32198;SDS011;19221;42.656;21.156;2022-10-17T07:49:56;39.58;;;20.30;;
32198;SDS011;19221;42.656;21.156;2022-10-17T07:52:22;40.22;;;20.65;;
32198;SDS011;19221;42.656;21.156;2022-10-17T07:54:48;35.90;;;20.73;;
32198;SDS011;19221;42.656;21.156;2022-10-17T07:57:13;39.03;;;18.15;;
32198;SDS011;19221;42.656;21.156;2022-10-17T07:59:39;45.13;;;19.27;;
32198;SDS011;19221;42.656;21.156;2022-10-17T08:02:05;31.48;;;18.63;;
32198;SDS011;19221;42.656;21.156;2022-10-17T08:04:32;38.60;;;20.40;;
32198;SDS011;19221;42.656;21.156;2022-10-17T08:06:58;42.17;;;20.10;;
32198;SDS011;19221;42.656;21.156;2022-10-17T08:09:24;35.20;;;18.95;;
32198;SDS011;19221;42.656;21.156;2022-10-17T08:11:50;35.08;;;20.60;;
32198;SDS011;19221;42.656;21.156;2022-10-17T08:14:18;41.67;;;20.25;;
32198;SDS011;19221;42.656;21.156;2022-10-17T08:16:45;39.47;;;20.35;;
32198;SDS011;19221;42.656;21.156;2022-10-17T08:19:11;37.38;;;20.48;;
32198;SDS011;19221;42.656;21.156;2022-10-17T08:21:37;34.65;;;19.92;;
32198;SDS011;19221;42.656;21.156;2022-10-17T08:24:03;44.65;;;22.35;;
32198;SDS011;19221;42.656;21.156;2022-10-17T08:26:29;46.05;;;22.85;;
32198;SDS011;19221;42.656;21.156;2022-10-17T08:28:55;41.60;;;21.02;;
32198;SDS011;19221;42.656;21.156;2022-10-17T08:31:21;40.65;;;20.17;;
32198;SDS011;19221;42.656;21.156;2022-10-17T08:33:47;33.08;;;20.20;;
32198;SDS011;19221;42.656;21.156;2022-10-17T08:36:13;36.00;;;22.02;;
32198;SDS011;19221;42.656;21.156;2022-10-17T08:38:40;42.45;;;21.70;;
32198;SDS011;19221;42.656;21.156;2022-10-17T08:41:12;32.78;;;20.10;;
32198;SDS011;19221;42.656;21.156;2022-10-17T08:46:17;34.08;;;19.10;;
32198;SDS011;19221;42.656;21.156;2022-10-17T08:48:43;33.83;;;20.05;;
32198;SDS011;19221;42.656;21.156;2022-10-17T08:51:12;35.88;;;18.88;;
32198;SDS011;19221;42.656;21.156;2022-10-17T08:56:26;36.70;;;18.48;;
32198;SDS011;19221;42.656;21.156;2022-10-17T08:58:53;32.08;;;21.25;;
32198;SDS011;19221;42.656;21.156;2022-10-17T09:04:00;41.30;;;20.65;;
32198;SDS011;19221;42.656;21.156;2022-10-17T09:06:34;31.13;;;19.23;;
32198;SDS011;19221;42.656;21.156;2022-10-17T09:11:43;35.13;;;21.15;;
32198;SDS011;19221;42.656;21.156;2022-10-17T09:19:42;43.90;;;22.98;;
32198;SDS011;19221;42.656;21.156;2022-10-17T09:22:11;37.58;;;23.15;;
32198;SDS011;19221;42.656;21.156;2022-10-17T09:24:42;42.85;;;21.88;;
32198;SDS011;19221;42.656;21.156;2022-10-17T09:27:13;37.33;;;22.60;;
32198;SDS011;19221;42.656;21.156;2022-10-17T09:29:40;51.42;;;24.17;;
32198;SDS011;19221;42.656;21.156;2022-10-17T09:32:20;42.45;;;23.00;;
32198;SDS011;19221;42.656;21.156;2022-10-17T09:34:47;49.70;;;22.02;;
32198;SDS011;19221;42.656;21.156;2022-10-17T09:37:14;41.53;;;23.63;;
32198;SDS011;19221;42.656;21.156;2022-10-17T09:39:40;48.80;;;23.23;;
32198;SDS011;19221;42.656;21.156;2022-10-17T09:42:08;30.30;;;21.27;;
32198;SDS011;19221;42.656;21.156;2022-10-17T09:45:00;38.42;;;20.90;;
32198;SDS011;19221;42.656;21.156;2022-10-17T09:49:53;43.30;;;22.13;;
32198;SDS011;19221;42.656;21.156;2022-10-17T09:52:21;39.25;;;23.08;;
32198;SDS011;19221;42.656;21.156;2022-10-17T09:55:00;39.17;;;23.83;;
32198;SDS011;19221;42.656;21.156;2022-10-17T09:57:27;61.17;;;25.30;;
32198;SDS011;19221;42.656;21.156;2022-10-17T10:00:00;38.40;;;23.17;;
32198;SDS011;19221;42.656;21.156;2022-10-17T10:02:27;34.05;;;22.17;;
32198;SDS011;19221;42.656;21.156;2022-10-17T10:04:54;31.60;;;19.58;;
32198;SDS011;19221;42.656;21.156;2022-10-17T10:07:22;27.45;;;18.35;;
32198;SDS011;19221;42.656;21.156;2022-10-17T10:09:48;34.58;;;19.10;;
32198;SDS011;19221;42.656;21.156;2022-10-17T10:14:49;35.83;;;18.17;;
32198;SDS011;19221;42.656;21.156;2022-10-17T10:19:59;29.40;;;18.75;;
32198;SDS011;19221;42.656;21.156;2022-10-17T10:22:25;34.03;;;19.85;;
32198;SDS011;19221;42.656;21.156;2022-10-17T10:27:35;29.50;;;17.83;;
32198;SDS011;19221;42.656;21.156;2022-10-17T10:30:01;29.30;;;18.58;;
32198;SDS011;19221;42.656;21.156;2022-10-17T10:32:27;27.15;;;15.93;;
32198;SDS011;19221;42.656;21.156;2022-10-17T10:34:55;24.70;;;14.38;;
32198;SDS011;19221;42.656;21.156;2022-10-17T10:37:26;31.20;;;14.27;;
32198;SDS011;19221;42.656;21.156;2022-10-17T10:44:50;22.35;;;14.45;;
32198;SDS011;19221;42.656;21.156;2022-10-17T10:49:45;25.95;;;13.43;;
32198;SDS011;19221;42.656;21.156;2022-10-17T10:52:45;25.40;;;15.25;;
32198;SDS011;19221;42.656;21.156;2022-10-17T10:57:48;17.42;;;10.98;;
32198;SDS011;19221;42.656;21.156;2022-10-17T11:00:15;17.60;;;10.30;;
32198;SDS011;19221;42.656;21.156;2022-10-17T11:05:26;18.15;;;11.65;;
32198;SDS011;19221;42.656;21.156;2022-10-17T11:08:04;18.38;;;10.55;;
32198;SDS011;19221;42.656;21.156;2022-10-17T11:10:43;18.70;;;9.70;;
32198;SDS011;19221;42.656;21.156;2022-10-17T11:13:16;18.23;;;10.20;;
32198;SDS011;19221;42.656;21.156;2022-10-17T11:18:30;9.02;;;7.57;;
32198;SDS011;19221;42.656;21.156;2022-10-17T11:23:45;14.70;;;10.30;;
32198;SDS011;19221;42.656;21.156;2022-10-17T11:26:22;25.33;;;12.30;;
32198;SDS011;19221;42.656;21.156;2022-10-17T11:28:52;10.85;;;8.10;;
32198;SDS011;19221;42.656;21.156;2022-10-17T11:31:19;10.90;;;7.10;;
32198;SDS011;19221;42.656;21.156;2022-10-17T11:33:48;22.63;;;8.55;;
32198;SDS011;19221;42.656;21.156;2022-10-17T11:36:15;13.40;;;7.45;;
32198;SDS011;19221;42.656;21.156;2022-10-17T11:41:12;14.38;;;7.30;;
32198;SDS011;19221;42.656;21.156;2022-10-17T11:43:41;12.88;;;7.93;;
32198;SDS011;19221;42.656;21.156;2022-10-17T11:48:41;12.70;;;7.78;;
32198;SDS011;19221;42.656;21.156;2022-10-17T11:51:09;10.77;;;7.22;;
32198;SDS011;19221;42.656;21.156;2022-10-17T11:56:49;21.15;;;8.93;;
32198;SDS011;19221;42.656;21.156;2022-10-17T12:02:07;13.10;;;7.75;;
32198;SDS011;19221;42.656;21.156;2022-10-17T12:07:21;18.10;;;9.30;;
32198;SDS011;19221;42.656;21.156;2022-10-17T12:12:27;9.07;;;6.65;;
32198;SDS011;19221;42.656;21.156;2022-10-17T12:14:53;9.23;;;6.18;;
32198;SDS011;19221;42.656;21.156;2022-10-17T12:19:48;9.30;;;6.32;;
32198;SDS011;19221;42.656;21.156;2022-10-17T12:22:18;15.43;;;6.90;;
32198;SDS011;19221;42.656;21.156;2022-10-17T12:24:54;15.90;;;8.88;;
32198;SDS011;19221;42.656;21.156;2022-10-17T12:27:39;17.85;;;9.38;;
32198;SDS011;19221;42.656;21.156;2022-10-17T12:32:36;14.82;;;5.80;;
32198;SDS011;19221;42.656;21.156;2022-10-17T12:35:02;10.70;;;5.97;;
32198;SDS011;19221;42.656;21.156;2022-10-17T12:42:56;5.88;;;4.68;;
32198;SDS011;19221;42.656;21.156;2022-10-17T12:53:36;9.65;;;4.20;;
32198;SDS011;19221;42.656;21.156;2022-10-17T12:56:03;5.32;;;4.32;;
32198;SDS011;19221;42.656;21.156;2022-10-17T12:58:29;8.00;;;4.47;;
32198;SDS011;19221;42.656;21.156;2022-10-17T13:00:57;5.63;;;5.00;;
32198;SDS011;19221;42.656;21.156;2022-10-17T13:03:25;6.05;;;4.40;;
32198;SDS011;19221;42.656;21.156;2022-10-17T13:06:01;5.13;;;4.10;;
32198;SDS011;19221;42.656;21.156;2022-10-17T13:08:31;7.80;;;4.47;;
32198;SDS011;19221;42.656;21.156;2022-10-17T13:10:57;4.30;;;3.90;;
32198;SDS011;19221;42.656;21.156;2022-10-17T13:15:58;7.10;;;5.15;;
32198;SDS011;19221;42.656;21.156;2022-10-17T13:18:25;7.68;;;4.43;;
32198;SDS011;19221;42.656;21.156;2022-10-17T13:20:58;7.47;;;4.90;;
32198;SDS011;19221;42.656;21.156;2022-10-17T13:23:25;5.07;;;4.57;;
32198;SDS011;19221;42.656;21.156;2022-10-17T13:28:31;4.68;;;4.25;;
32198;SDS011;19221;42.656;21.156;2022-10-17T13:30:56;5.55;;;3.67;;
32198;SDS011;19221;42.656;21.156;2022-10-17T13:33:40;5.60;;;4.43;;
32198;SDS011;19221;42.656;21.156;2022-10-17T13:36:07;7.75;;;4.60;;
32198;SDS011;19221;42.656;21.156;2022-10-17T13:38:38;7.03;;;4.53;;
32198;SDS011;19221;42.656;21.156;2022-10-17T13:41:04;7.88;;;4.93;;
32198;SDS011;19221;42.656;21.156;2022-10-17T13:43:34;8.30;;;4.55;;
32198;SDS011;19221;42.656;21.156;2022-10-17T13:46:01;5.60;;;4.90;;
32198;SDS011;19221;42.656;21.156;2022-10-17T13:48:31;8.43;;;5.07;;
32198;SDS011;19221;42.656;21.156;2022-10-17T13:50:59;5.85;;;4.00;;
32198;SDS011;19221;42.656;21.156;2022-10-17T13:53:33;5.88;;;4.80;;
32198;SDS011;19221;42.656;21.156;2022-10-17T13:58:44;6.47;;;5.05;;
32198;SDS011;19221;42.656;21.156;2022-10-17T14:01:11;10.23;;;4.95;;
32198;SDS011;19221;42.656;21.156;2022-10-17T14:03:42;7.45;;;5.53;;
32198;SDS011;19221;42.656;21.156;2022-10-17T14:08:38;9.98;;;5.70;;
32198;SDS011;19221;42.656;21.156;2022-10-17T14:14:46;5.40;;;4.90;;
32198;SDS011;19221;42.656;21.156;2022-10-17T14:17:01;8.38;;;4.93;;
32198;SDS011;19221;42.656;21.156;2022-10-17T14:19:27;9.20;;;4.78;;
32198;SDS011;19221;42.656;21.156;2022-10-17T14:21:55;11.05;;;5.00;;
32198;SDS011;19221;42.656;21.156;2022-10-17T14:26:51;11.20;;;4.57;;
32198;SDS011;19221;42.656;21.156;2022-10-17T14:29:21;5.40;;;4.28;;
32198;SDS011;19221;42.656;21.156;2022-10-17T14:31:47;9.27;;;5.05;;
32198;SDS011;19221;42.656;21.156;2022-10-17T14:34:19;6.85;;;4.95;;
32198;SDS011;19221;42.656;21.156;2022-10-17T14:36:45;5.00;;;4.50;;
32198;SDS011;19221;42.656;21.156;2022-10-17T14:39:19;7.45;;;4.70;;
32198;SDS011;19221;42.656;21.156;2022-10-17T14:41:46;5.13;;;4.55;;
32198;SDS011;19221;42.656;21.156;2022-10-17T14:44:14;7.82;;;5.00;;
32198;SDS011;19221;42.656;21.156;2022-10-17T14:46:43;6.30;;;5.20;;
32198;SDS011;19221;42.656;21.156;2022-10-17T14:49:18;9.45;;;5.60;;
32198;SDS011;19221;42.656;21.156;2022-10-17T14:54:29;9.50;;;5.85;;
32198;SDS011;19221;42.656;21.156;2022-10-17T14:56:54;13.60;;;6.47;;
32198;SDS011;19221;42.656;21.156;2022-10-17T14:59:20;11.65;;;5.82;;
32198;SDS011;19221;42.656;21.156;2022-10-17T15:01:50;8.00;;;5.47;;
32198;SDS011;19221;42.656;21.156;2022-10-17T15:04:16;8.93;;;5.20;;
32198;SDS011;19221;42.656;21.156;2022-10-17T15:06:42;8.00;;;5.80;;
32198;SDS011;19221;42.656;21.156;2022-10-17T15:09:09;13.48;;;5.00;;
32198;SDS011;19221;42.656;21.156;2022-10-17T15:11:35;10.13;;;4.90;;
32198;SDS011;19221;42.656;21.156;2022-10-17T15:14:01;6.97;;;4.80;;
32198;SDS011;19221;42.656;21.156;2022-10-17T15:16:29;17.08;;;5.90;;
32198;SDS011;19221;42.656;21.156;2022-10-17T15:18:55;20.23;;;6.05;;
32198;SDS011;19221;42.656;21.156;2022-10-17T15:21:23;13.30;;;5.55;;
32198;SDS011;19221;42.656;21.156;2022-10-17T15:23:49;11.75;;;5.97;;
32198;SDS011;19221;42.656;21.156;2022-10-17T15:28:40;9.80;;;7.25;;
32198;SDS011;19221;42.656;21.156;2022-10-17T15:31:08;6.93;;;5.88;;
32198;SDS011;19221;42.656;21.156;2022-10-17T15:33:34;10.68;;;7.13;;
32198;SDS011;19221;42.656;21.156;2022-10-17T15:35:59;17.48;;;9.07;;
32198;SDS011;19221;42.656;21.156;2022-10-17T15:38:25;11.00;;;8.13;;
32198;SDS011;19221;42.656;21.156;2022-10-17T15:40:51;13.05;;;8.80;;
32198;SDS011;19221;42.656;21.156;2022-10-17T15:43:17;14.77;;;8.82;;
32198;SDS011;19221;42.656;21.156;2022-10-17T15:45:43;14.55;;;8.88;;
32198;SDS011;19221;42.656;21.156;2022-10-17T15:48:11;13.77;;;9.10;;
32198;SDS011;19221;42.656;21.156;2022-10-17T15:50:40;14.55;;;9.25;;
32198;SDS011;19221;42.656;21.156;2022-10-17T15:53:10;16.08;;;9.73;;
32198;SDS011;19221;42.656;21.156;2022-10-17T15:55:35;13.00;;;9.00;;
32198;SDS011;19221;42.656;21.156;2022-10-17T15:58:01;12.07;;;8.77;;
32198;SDS011;19221;42.656;21.156;2022-10-17T16:00:28;16.73;;;9.30;;
32198;SDS011;19221;42.656;21.156;2022-10-17T16:02:53;17.42;;;9.82;;
32198;SDS011;19221;42.656;21.156;2022-10-17T16:05:22;15.40;;;9.32;;
32198;SDS011;19221;42.656;21.156;2022-10-17T16:07:48;17.17;;;9.45;;
32198;SDS011;19221;42.656;21.156;2022-10-17T16:10:14;15.15;;;9.05;;
32198;SDS011;19221;42.656;21.156;2022-10-17T16:12:40;18.15;;;11.45;;
32198;SDS011;19221;42.656;21.156;2022-10-17T16:15:12;22.38;;;13.13;;
32198;SDS011;19221;42.656;21.156;2022-10-17T16:17:38;20.05;;;11.73;;
32198;SDS011;19221;42.656;21.156;2022-10-17T16:20:04;52.97;;;29.83;;
32198;SDS011;19221;42.656;21.156;2022-10-17T16:22:30;41.20;;;22.50;;
32198;SDS011;19221;42.656;21.156;2022-10-17T16:24:56;48.60;;;25.80;;
32198;SDS011;19221;42.656;21.156;2022-10-17T16:27:22;51.55;;;26.35;;
32198;SDS011;19221;42.656;21.156;2022-10-17T16:29:48;46.83;;;25.27;;
32198;SDS011;19221;42.656;21.156;2022-10-17T16:32:14;43.17;;;27.05;;
32198;SDS011;19221;42.656;21.156;2022-10-17T16:34:39;42.03;;;25.17;;
32198;SDS011;19221;42.656;21.156;2022-10-17T16:37:05;43.15;;;27.60;;